WMSA

Sultan Abdul Aziz Shah International Airport

Subang, Malaysia
TAF WMSA 191100Z 1912/2012 VRB03KT 9999 FEW017CB SCT025 BECMG 1917/1919 9000 FEW010 FEW017CB BECMG 1923/2001 06005KT FEW020
Issued Valid From Valid To
Jan-19 @ 11:00 UTC
(6 hours ago)
Jan-19 @ 12:00 UTC
(5 hours ago)
Jan-20 @ 12:00 UTC
(in 19 hours)
Jan-19 @ 12:00 to Jan-19 @ 17:00
TAF WMSA 191100Z 1912/2012 VRB03KT 9999 FEW017CB SCT025
Wind Visibility Clouds
Variable at 3 knots 10,000+ meters
  • Few at 1,700' AGL
  • Scattered at 2,500' AGL
Becoming Jan-19 @ 17:00 to Jan-19 @ 23:00
BECMG 1917/1919 9000 FEW010 FEW017CB
Wind Visibility Clouds
Variable at 3 knots 8,996 meters
  • Few at 1,000' AGL
  • Few at 1,700' AGL
Becoming Jan-19 @ 23:00 to Jan-20 @ 12:00
BECMG 1923/2001 06005KT FEW020
Wind Visibility Clouds
60° at 5 knots 8,996 meters
  • Few at 2,000' AGL
TAF WMSA 191100Z 1912/2012 VRB03KT 9999 FEW017CB SCT025 BECMG 1917/1919 9000 FEW010 FEW017CB BECMG 1923/2001 06005KT FEW020
Issued Jan-19 @ 11:00 UTC
(6 hours ago)
Valid From Jan-19 @ 12:00 UTC
(5 hours ago)
Valid To Jan-20 @ 12:00 UTC
(in 19 hours)
Jan-19 @ 12:00 - Jan-19 @ 17:00
Wind Visibility
Variable at 3 knots 10,000+ meters
Clouds
  • Few at 1,700' AGL
  • Scattered at 2,500' AGL
Becoming Jan-19 @ 17:00 - Jan-19 @ 23:00
Wind Visibility
Variable at 3 knots 8,996 meters
Clouds
  • Few at 1,000' AGL
  • Few at 1,700' AGL
Becoming Jan-19 @ 23:00 - Jan-20 @ 12:00
Wind Visibility
60° at 5 knots 8,996 meters
Clouds
  • Few at 2,000' AGL